Latest Weather Observations for Yarrawonga

IDN60801

Issued at 4:32 pm EDT Wednesday 1 April 2015 (issued every 30 minutes, with the page automatically refreshed every 10 minutes)

About weather observations | Map of weather stations | Latest weather observations for NSW | Other Formats
Station Details ID: 081124 Name: YARRAWONGA Lat: -36.03 Lon: 146.03 Height: 128.9 m
Data from the previous 72 hours. | See also: Recent months at Yarrawonga
Date/Time
EDT
Temp
°C
App
Temp
°C
Dew
Point
Rel
Hum
%
Delta-T
°C
Wind Press
QNH
hPa
Press
MSL
hPa
Rain
since 9 am
mm
Dir
 
Spd
km/h
Gust
km/h
Spd
kts
Gust
kts
01/04:30pm 29.2 25.5 10.3 31 10.7 NNW 20 30 11 16 1015.9 1015.7 0.0
01/04:00pm 30.2 26.8 10.7 30 11.2 NNW 19 28 10 15 1016.1 1015.9 0.0
01/03:30pm 29.8 26.3 10.9 31 10.9 N 20 32 11 17 1016.5 1016.3 0.0
01/03:00pm 28.9 25.5 10.6 32 10.4 N 19 32 10 17 1016.9 1016.7 0.0
01/02:30pm 29.5 27.1 11.5 33 10.5 NNE 15 20 8 11 1017.5 1017.3 0.0
01/02:00pm 29.1 26.3 11.2 33 10.3 N 17 26 9 14 1018.0 1017.8 0.0
01/01:30pm 28.5 25.8 11.6 35 9.8 N 17 24 9 13 1018.6 1018.4 0.0
01/01:00pm 27.3 24.5 11.3 37 9.2 N 17 28 9 15 1019.2 1019.0 0.0
01/12:30pm 27.0 24.0 11.9 39 8.7 N 19 28 10 15 1019.8 1019.7 0.0
01/12:00pm 26.1 23.7 12.5 42 7.9 NNE 17 24 9 13 1020.4 1020.3 0.0
01/11:30am 25.2 22.3 12.4 45 7.4 NNE 19 28 10 15 1020.9 1020.8 0.0
01/11:00am 24.1 20.7 12.4 48 6.7 NNE 22 30 12 16 1021.2 1021.1 0.0
01/10:30am 23.0 19.6 12.6 52 6.0 NNE 22 32 12 17 1021.7 1021.4 0.0
01/10:00am 21.7 18.9 12.5 56 5.2 NE 19 28 10 15 1022.1 1021.8 0.0
01/09:30am 20.5 18.7 12.2 59 4.7 ENE 13 19 7 10 1022.2 1021.9 0.0
01/09:00am 19.1 16.0 11.7 62 4.1 ENE 19 24 10 13 1022.0 1021.7 0.0
01/08:30am 17.6 16.0 11.6 68 3.3 E 11 13 6 7 1022.0 1021.7 0.0
01/08:00am 14.4 12.7 9.8 74 2.4 E 9 11 5 6 1021.8 1021.5 0.0
01/07:30am 12.3 10.0 7.6 73 2.3 E 9 11 5 6 1021.5 1021.2 0.0
01/07:00am 12.7 11.4 7.8 72 2.4 ESE 4 7 2 4 1021.5 1021.2 0.0
01/06:30am 13.2 11.3 7.4 68 2.8 E 7 9 4 5 1021.5 1021.2 0.0
01/06:00am 13.1 10.7 7.1 67 2.9 ESE 9 11 5 6 1021.4 1021.1 0.0
01/05:30am 13.8 11.8 7.3 65 3.2 E 7 9 4 5 1021.1 1020.7 0.0
01/05:00am 13.2 11.0 6.3 63 3.3 E 7 9 4 5 1021.0 1020.6 0.0
01/04:30am 13.1 10.8 5.5 60 3.6 ESE 7 7 4 4 1021.2 1020.9 0.0
01/04:00am 13.2 10.8 5.4 59 3.7 ESE 7 7 4 4 1021.5 1021.2 0.0
01/03:30am 13.4 10.7 5.6 59 3.7 E 9 11 5 6 1021.8 1021.5 0.0
01/03:00am 14.3 12.1 5.4 55 4.2 SE 6 7 3 4 1022.2 1021.9 0.0
01/02:30am 14.1 11.8 4.9 54 4.3 ESE 6 7 3 4 1022.3 1022.0 0.0
01/02:00am 14.3 12.4 5.1 54 4.3 ENE 4 6 2 3 1022.5 1022.2 0.0
01/01:30am 13.6 11.1 4.5 54 4.2 E 7 9 4 5 1022.4 1022.1 0.0
01/01:00am 13.1 10.7 4.3 55 4.0 ESE 6 6 3 3 1022.4 1022.1 0.0
01/12:30am 13.8 12.5 4.1 52 4.5 CALM 0 4 0 2 1022.5 1022.2 0.0
01/12:00am 14.0 12.6 3.5 49 4.8 CALM 0 0 0 0 1022.5 1022.2 0.0
 
Date/Time
EDT
Temp
°C
App
Temp
°C
Dew
Point
Rel
Hum
%
Delta-T
°C
Wind Press
QNH
hPa
Press
MSL
hPa
Rain
since 9 am
mm
Dir
 
Spd
km/h
Gust
km/h
Spd
kts
Gust
kts
31/11:30pm 14.8 13.5 3.9 48 5.0 CALM 0 0 0 0 1022.7 1022.4 0.0
31/11:00pm 15.7 14.5 4.4 47 5.3 CALM 0 0 0 0 1022.7 1022.4 0.0
31/10:30pm 15.7 14.3 3.8 45 5.5 CALM 0 0 0 0 1022.6 1022.3 0.0
31/10:00pm 16.5 14.8 3.9 43 5.9 S 2 2 1 1 1022.6 1022.3 0.0
31/09:30pm 17.1 15.4 3.8 41 6.2 SE 2 4 1 2 1022.4 1022.1 0.0
31/09:00pm 17.9 16.2 3.8 39 6.6 SE 2 4 1 2 1022.2 1021.9 0.0
31/08:30pm 19.9 17.4 4.0 35 7.6 SE 6 6 3 3 1022.0 1021.7 0.0
31/08:00pm 21.6 19.6 4.2 32 8.5 ESE 4 6 2 3 1021.8 1021.5 0.0
31/07:30pm 22.7 20.2 3.8 29 9.2 ESE 6 7 3 4 1021.6 1021.3 0.0
31/07:00pm 25.5 23.0 4.0 25 10.7 E 6 7 3 4 1021.5 1021.2 0.0
31/06:30pm 27.9 25.4 3.6 21 12.3 E 6 9 3 5 1021.4 1021.1 0.0
31/06:00pm 28.4 26.2 3.3 20 12.6 NE 4 6 2 3 1021.4 1021.1 0.0
31/05:30pm 28.5 25.9 3.4 20 12.7 ENE 6 11 3 6 1021.4 1021.1 0.0
31/05:00pm 29.2 27.4 3.2 19 13.1 NNE 2 9 1 5 1021.4 1021.1 0.0
31/04:30pm 29.3 27.2 4.0 20 13.0 W 4 6 2 3 1021.5 1021.2 0.0
31/04:00pm 29.0 27.4 4.5 21 12.6 NW 2 9 1 5 1021.7 1021.4 0.0
31/03:30pm 28.5 27.1 5.4 23 12.1 NE 2 6 1 3 1022.1 1021.8 0.0
31/03:00pm 29.1 27.3 5.2 22 12.4 NW 4 7 2 4 1022.4 1022.1 0.0
31/02:30pm 28.5 26.3 5.4 23 12.1 ENE 6 11 3 6 1022.8 1022.5 0.0
31/02:00pm 28.5 26.4 6.0 24 11.8 ESE 6 11 3 6 1023.5 1023.1 0.0
31/01:30pm 27.7 25.6 5.9 25 11.4 NNE 6 11 3 6 1024.1 1023.7 0.0
31/01:00pm 27.1 25.1 7.0 28 10.7 NNE 7 13 4 7 1024.8 1024.4 0.0
31/12:30pm 26.1 24.0 6.7 29 10.2 NE 7 15 4 8 1025.4 1025.0 0.0
31/12:00pm 25.5 23.6 6.7 30 9.8 NE 6 11 3 6 1025.9 1025.5 0.0
31/11:30am 24.2 22.6 7.8 35 8.7 NE 6 9 3 5 1026.2 1025.8 0.0
31/11:00am 23.0 20.8 7.9 38 7.9 NE 9 13 5 7 1026.4 1026.0 0.0
31/10:30am 21.5 18.9 7.7 41 7.2 ENE 11 15 6 8 1026.5 1026.1 0.0
31/10:00am 20.7 18.1 7.7 43 6.7 ENE 11 15 6 8 1026.5 1026.1 0.0
31/09:30am 18.6 16.5 8.3 51 5.3 E 9 13 5 7 1026.3 1025.9 0.0
31/09:00am 16.6 14.5 8.3 58 4.2 E 9 11 5 6 1026.0 1025.6 0.0
31/08:30am 14.2 13.0 8.2 67 3.0 E 4 4 2 2 1025.7 1025.3 0.0
31/08:00am 11.0 9.6 7.3 78 1.8 SE 4 4 2 2 1025.4 1025.0 0.0
31/07:30am 10.6 9.5 6.7 77 1.8 ESE 2 6 1 3 1025.0 1024.6 0.0
31/07:00am 11.0 9.1 6.7 75 2.0 E 6 6 3 3 1024.6 1024.2 0.0
31/06:30am 11.4 10.7 7.1 75 2.1 CALM 0 0 0 0 1024.3 1023.9 0.0
31/06:00am 11.6 9.7 6.5 71 2.4 ESE 6 6 3 3 1024.0 1023.6 0.0
31/05:30am 11.4 9.4 6.3 71 2.4 ESE 6 7 3 4 1023.9 1023.5 0.0
31/05:00am 11.5 9.9 6.4 71 2.4 ESE 4 6 2 3 1023.7 1023.3 0.0
31/04:30am 11.7 9.5 6.0 68 2.7 ESE 7 11 4 6 1023.7 1023.3 0.0
31/04:00am 11.8 9.5 5.7 66 2.8 E 7 9 4 5 1023.9 1023.5 0.0
31/03:30am 11.3 10.3 5.4 67 2.7 CALM 0 0 0 0 1023.9 1023.5 0.0
31/03:00am 11.3 10.2 5.0 65 2.9 CALM 0 0 0 0 1024.0 1023.6 0.0
31/02:30am 11.1 9.6 4.8 65 2.9 SSE 2 2 1 1 1024.0 1023.6 0.0
31/02:00am 11.5 10.0 4.9 64 3.0 ESE 2 4 1 2 1024.2 1023.8 0.0
31/01:30am 12.1 9.8 4.8 61 3.4 ESE 6 9 3 5 1023.9 1023.5 0.0
31/01:00am 12.4 10.5 5.1 61 3.4 SSW 4 6 2 3 1023.8 1023.4 0.0
31/12:30am 12.9 11.7 4.8 58 3.8 CALM 0 0 0 0 1023.8 1023.4 0.0
31/12:00am 13.7 12.5 4.8 55 4.1 CALM 0 0 0 0 1023.9 1023.5 0.0
 
Date/Time
EDT
Temp
°C
App
Temp
°C
Dew
Point
Rel
Hum
%
Delta-T
°C
Wind Press
QNH
hPa
Press
MSL
hPa
Rain
since 9 am
mm
Dir
 
Spd
km/h
Gust
km/h
Spd
kts
Gust
kts
30/11:30pm 14.9 13.8 4.9 51 4.7 CALM 0 2 0 1 1023.9 1023.5 0.0
30/11:00pm 15.4 13.7 5.9 53 4.6 WSW 4 6 2 3 1023.9 1023.5 0.0
30/10:30pm 16.3 14.1 5.3 48 5.3 WSW 6 6 3 3 1023.8 1023.4 0.0
30/10:00pm 17.1 15.2 5.1 45 5.8 WSW 4 6 2 3 1023.8 1023.4 0.0
30/09:30pm 18.0 15.9 5.6 44 6.1 WSW 6 6 3 3 1023.7 1023.3 0.0
30/09:00pm 18.3 16.0 5.5 43 6.2 SW 7 9 4 5 1023.6 1023.2 0.0
30/08:30pm 19.0 16.2 5.1 40 6.8 SW 9 11 5 6 1023.5 1023.1 0.0
30/08:00pm 19.7 16.4 4.6 37 7.3 SW 11 11 6 6 1023.1 1022.7 0.0
30/07:30pm 21.9 18.7 4.9 33 8.4 SW 11 13 6 7 1022.7 1022.4 0.0
30/07:00pm 24.4 21.0 4.2 27 10.0 SW 11 15 6 8 1022.5 1022.2 0.0
30/06:30pm 26.5 23.2 4.3 24 11.2 SW 11 17 6 9 1022.2 1021.9 0.0
30/06:00pm 27.2 24.1 3.7 22 11.8 SW 9 17 5 9 1021.9 1021.6 0.0
30/05:30pm 28.0 24.5 3.7 21 12.3 SW 11 19 6 10 1021.8 1021.5 0.0
30/05:00pm 28.1 24.0 4.4 22 12.1 W 15 20 8 11 1021.6 1021.3 0.0
30/04:30pm 28.1 25.8 5.0 23 11.9 SW 6 11 3 6 1021.5 1021.2 0.0
30/04:00pm 28.4 24.0 4.6 22 12.2 SSW 17 30 9 16 1021.7 1021.4 0.0
30/03:30pm 28.2 25.0 5.1 23 12.0 W 11 17 6 9 1021.9 1021.6 0.0
30/03:00pm 27.9 25.0 4.9 23 11.8 WNW 9 13 5 7 1022.2 1021.9 0.0
30/02:30pm 27.5 25.1 4.5 23 11.8 WNW 6 17 3 9 1022.4 1022.1 0.0
30/02:00pm 27.1 23.8 4.8 24 11.4 W 11 20 6 11 1022.7 1022.4 0.0
30/01:30pm 26.8 24.6 5.1 25 11.2 WNW 6 17 3 9 1023.3 1022.9 0.0
30/01:00pm 26.2 23.7 4.6 25 10.9 NNW 7 15 4 8 1023.7 1023.3 0.0
30/12:30pm 25.8 23.6 6.4 29 10.1 N 7 15 4 8 1024.1 1023.7 0.0
30/12:00pm 24.6 22.5 5.9 30 9.6 NE 6 13 3 7 1024.4 1024.0 0.0
30/11:30am 23.8 21.6 7.8 36 8.5 NE 9 13 5 7 1024.8 1024.4 0.0
30/11:00am 21.9 19.3 7.7 40 7.4 NE 11 15 6 8 1025.1 1024.7 0.0
30/10:30am 20.0 18.2 8.0 46 6.2 ENE 7 13 4 7 1025.1 1024.7 0.0
30/10:00am 18.8 16.6 7.9 49 5.6 ENE 9 13 5 7 1025.1 1024.7 0.0
30/09:30am 17.3 14.8 8.2 55 4.7 ENE 11 13 6 7 1025.0 1024.6 0.0
30/09:00am 15.7 13.0 7.2 57 4.2 E 11 15 6 8 1024.8 1024.4 0.0
30/08:30am 13.6 11.9 7.6 67 3.0 E 6 9 3 5 1024.5 1024.1 0.0
30/08:00am 10.3 8.2 6.6 78 1.7 ESE 7 9 4 5 1024.1 1023.7 0.0
30/07:30am 9.7 7.4 5.9 77 1.8 ESE 7 11 4 6 1023.8 1023.4 0.0
30/07:00am 10.3 8.1 6.3 76 1.9 ESE 7 9 4 5 1023.6 1023.2 0.0
30/06:30am 10.3 8.1 6.3 76 1.9 ESE 7 9 4 5 1023.3 1022.9 0.0
30/06:00am 10.7 8.6 6.5 75 2.0 ESE 7 9 4 5 1023.1 1022.7 0.0
30/05:30am 10.4 8.2 6.4 76 1.9 E 7 9 4 5 1022.7 1022.4 0.0
30/05:00am 10.3 9.1 6.3 76 1.9 ESE 2 6 1 3 1022.6 1022.3 0.0
30/04:30am 10.6 9.4 6.4 75 2.0 ESE 2 7 1 4 1022.6 1022.3 0.0
30/04:00am 11.1 9.2 6.6 74 2.1 ESE 6 7 3 4 1022.2 1021.9 0.0
30/03:30am 10.6 8.7 6.7 77 1.8 E 6 9 3 5 1022.3 1022.0 0.0
30/03:00am 10.4 8.7 6.0 74 2.0 SE 4 6 2 3 1022.3 1022.0 0.0
30/02:30am 10.8 9.6 6.4 74 2.1 ENE 2 4 1 2 1022.4 1022.1 0.0
30/02:00am 11.0 10.1 6.0 71 2.3 CALM 0 0 0 0 1022.6 1022.3 0.0
30/01:30am 10.9 10.0 5.9 71 2.3 CALM 0 2 0 1 1022.8 1022.5 0.0
30/01:00am 11.7 10.5 6.6 71 2.4 E 2 4 1 2 1022.8 1022.5 0.0
30/12:30am 11.9 10.9 5.8 66 2.9 CALM 0 0 0 0 1022.8 1022.5 0.0
30/12:00am 12.6 11.9 6.9 68 2.7 CALM 0 0 0 0 1022.9 1022.6 0.0
 
Date/Time
EDT
Temp
°C
App
Temp
°C
Dew
Point
Rel
Hum
%
Delta-T
°C
Wind Press
QNH
hPa
Press
MSL
hPa
Rain
since 9 am
mm
Dir
 
Spd
km/h
Gust
km/h
Spd
kts
Gust
kts
29/11:30pm 13.4 12.3 7.0 65 3.1 NNW 2 4 1 2 1023.2 1022.8 0.0
29/11:00pm 15.5 14.2 9.8 69 3.0 N 7 7 4 4 1023.3 1022.9 0.0
29/10:30pm 15.6 14.0 8.1 61 3.8 N 6 6 3 3 1023.3 1022.9 0.0
29/10:00pm 16.3 15.2 8.3 59 4.1 NNW 4 4 2 2 1023.2 1022.8 0.0
29/09:30pm 17.3 16.1 7.9 54 4.8 NW 4 6 2 3 1023.1 1022.7 0.0
29/09:00pm 16.3 14.5 7.0 54 4.6 WNW 6 11 3 6 1022.7 1022.4 0.0
29/08:30pm 17.7 16.2 6.6 48 5.5 W 4 6 2 3 1022.3 1022.0 0.0
29/08:00pm 18.6 16.6 6.1 44 6.2 W 6 6 3 3 1022.0 1021.7 0.0
29/07:30pm 20.2 18.3 6.5 41 6.9 W 6 7 3 4 1021.8 1021.5 0.0
29/07:00pm 21.7 19.5 6.4 37 7.8 W 7 11 4 6 1021.4 1021.1 0.0
29/06:30pm 23.5 20.1 5.9 32 9.0 WNW 13 17 7 9 1021.1 1020.7 0.0
29/06:00pm 24.0 20.6 5.8 31 9.3 WNW 13 20 7 11 1021.1 1020.7 0.0
29/05:30pm 24.8 21.7 5.6 29 9.8 WNW 11 15 6 8 1020.9 1020.5 0.0
29/05:00pm 25.0 22.3 5.7 29 9.9 WNW 9 15 5 8 1020.8 1020.4 0.0

Other Formats:

Comma delimited format used in spreadsheet applications
http://www.bom.gov.au/fwo/IDN60801/IDN60801.94862.axf

JavaScript Object Notation format (JSON) in row-major order
http://www.bom.gov.au/fwo/IDN60801/IDN60801.94862.json